Airfield :
LOGIN :

Register | Disclaimer

   EN    FR    IT 

 










Legend :    VFR   Marginal VFR   IFR   Intensive IFR   Very Intensive IFR
Visi :
Ceiling :
>= 8 km
>= 3000ft
5 to 8 km
1000 to 3000 ft
1500m to 5 km
500 to 1000 ft
800 to 1500m
200 to 500 ft
< 800m
< 200 ft
Symbols :   Thunderstorms  Fog  Heavy snow  Heavy precipitations  Wind > 20 kt
SIGMETs :     Misc.  Thunderstorms  Icing  Turbulence  Mountain Waves  Volcanic Ashes






- Airport Elevation : 1860 ft
- IATA code : GRX


LEGR - Granada

CURRENT METAR :
  • 012300Z AUTO 22002KT CAVOK 23/17 Q1017

EXPIRED METARs :
  • 012200Z AUTO VRB01KT CAVOK 24/17 Q1017
  • 011630Z 16014KT 130V190 9999 FEW060 35/14 Q1013
  • 012130Z AUTO 20006KT 160V230 CAVOK 25/17 Q1017
  • 012100Z 27004KT CAVOK 24/16 Q1017
  • 012030Z 00000KT CAVOK 25/17 Q1016

TAF TAF LEGR
Valid from the 01 at 18:00 until the 02 at 18:00 UTC


011700Z 0118/0218 VRB04KT CAVOK TX38/0215Z TN15/0205Z
TEMPO 0118/0119 18010KT
TEMPO 0213/0218 19010KT



MET'MAP, your aeronautical weather chart ! - Copyright ORBIFLY December 2007 - Disclaimer

ORBIFLY MET'MAP TEAM :

Programming & Development : Alexandra Zaïnal
Original concept : Baudouin d'Aumeries
Technical & hardware support : Manuel Goepfert
Assistance : Marc-Olivier Méhu




SOURCES & CREDITS :

   NOAA